sensor_id;sensor_type;location;lat;lon;timestamp;temperature;humidity
68387;DHT22;55338;43.062;25.624;2022-10-28T00:02:11;7.90;99.90
68387;DHT22;55338;43.062;25.624;2022-10-28T00:04:36;7.90;99.90
68387;DHT22;55338;43.062;25.624;2022-10-28T00:07:02;7.90;99.90
68387;DHT22;55338;43.062;25.624;2022-10-28T00:09:28;7.90;99.90
68387;DHT22;55338;43.062;25.624;2022-10-28T00:11:54;7.80;99.90
68387;DHT22;55338;43.062;25.624;2022-10-28T00:14:20;7.70;99.90
68387;DHT22;55338;43.062;25.624;2022-10-28T00:16:46;7.70;99.90
68387;DHT22;55338;43.062;25.624;2022-10-28T00:19:12;7.70;99.90
68387;DHT22;55338;43.062;25.624;2022-10-28T00:21:40;7.60;99.90
68387;DHT22;55338;43.062;25.624;2022-10-28T00:24:06;7.70;99.90
68387;DHT22;55338;43.062;25.624;2022-10-28T00:26:35;7.60;99.90
68387;DHT22;55338;43.062;25.624;2022-10-28T00:29:07;7.60;99.90
68387;DHT22;55338;43.062;25.624;2022-10-28T00:31:34;7.60;99.90
68387;DHT22;55338;43.062;25.624;2022-10-28T00:34:02;7.50;99.90
68387;DHT22;55338;43.062;25.624;2022-10-28T00:36:35;7.50;99.90
68387;DHT22;55338;43.062;25.624;2022-10-28T00:39:03;7.40;99.90
68387;DHT22;55338;43.062;25.624;2022-10-28T00:41:35;7.40;99.90
68387;DHT22;55338;43.062;25.624;2022-10-28T00:49:41;7.40;99.90
68387;DHT22;55338;43.062;25.624;2022-10-28T00:52:15;7.40;99.90
68387;DHT22;55338;43.062;25.624;2022-10-28T00:54:43;7.40;99.90
68387;DHT22;55338;43.062;25.624;2022-10-28T00:57:13;7.30;99.90
68387;DHT22;55338;43.062;25.624;2022-10-28T00:59:44;7.30;99.90
68387;DHT22;55338;43.062;25.624;2022-10-28T01:02:11;7.20;99.90
68387;DHT22;55338;43.062;25.624;2022-10-28T01:04:37;7.20;99.90
68387;DHT22;55338;43.062;25.624;2022-10-28T01:07:05;7.10;99.90
68387;DHT22;55338;43.062;25.624;2022-10-28T01:09:30;7.20;99.90
68387;DHT22;55338;43.062;25.624;2022-10-28T01:12:02;7.20;99.90
68387;DHT22;55338;43.062;25.624;2022-10-28T01:23:00;6.90;99.90
68387;DHT22;55338;43.062;25.624;2022-10-28T01:31:28;6.90;99.90
68387;DHT22;55338;43.062;25.624;2022-10-28T01:39:32;6.80;99.90
68387;DHT22;55338;43.062;25.624;2022-10-28T01:44:56;6.70;99.90
68387;DHT22;55338;43.062;25.624;2022-10-28T01:47:33;6.70;99.90
68387;DHT22;55338;43.062;25.624;2022-10-28T01:50:05;6.70;99.90
68387;DHT22;55338;43.062;25.624;2022-10-28T01:52:32;6.80;99.90
68387;DHT22;55338;43.062;25.624;2022-10-28T01:55:12;6.80;99.90
68387;DHT22;55338;43.062;25.624;2022-10-28T01:57:41;6.90;99.90
68387;DHT22;55338;43.062;25.624;2022-10-28T02:00:07;6.90;99.90
68387;DHT22;55338;43.062;25.624;2022-10-28T02:02:35;6.80;99.90
68387;DHT22;55338;43.062;25.624;2022-10-28T02:07:55;6.90;99.90
68387;DHT22;55338;43.062;25.624;2022-10-28T02:10:28;6.90;99.90
68387;DHT22;55338;43.062;25.624;2022-10-28T02:13:01;6.90;99.90
68387;DHT22;55338;43.062;25.624;2022-10-28T02:26:09;6.70;99.90
68387;DHT22;55338;43.062;25.624;2022-10-28T02:33:49;6.50;99.90
68387;DHT22;55338;43.062;25.624;2022-10-28T02:36:17;6.40;99.90
68387;DHT22;55338;43.062;25.624;2022-10-28T02:38:55;6.40;99.90
68387;DHT22;55338;43.062;25.624;2022-10-28T02:41:42;6.40;99.90
68387;DHT22;55338;43.062;25.624;2022-10-28T02:44:14;6.30;99.90
68387;DHT22;55338;43.062;25.624;2022-10-28T02:46:44;6.30;99.90
68387;DHT22;55338;43.062;25.624;2022-10-28T02:49:12;6.30;99.90
68387;DHT22;55338;43.062;25.624;2022-10-28T02:51:57;6.30;99.90
68387;DHT22;55338;43.062;25.624;2022-10-28T02:54:36;6.30;99.90
68387;DHT22;55338;43.062;25.624;2022-10-28T02:57:12;6.30;99.90
68387;DHT22;55338;43.062;25.624;2022-10-28T02:59:39;6.30;99.90
68387;DHT22;55338;43.062;25.624;2022-10-28T03:02:06;6.20;99.90
68387;DHT22;55338;43.062;25.624;2022-10-28T03:04:32;6.30;99.90
68387;DHT22;55338;43.062;25.624;2022-10-28T03:06:58;6.30;99.90
68387;DHT22;55338;43.062;25.624;2022-10-28T03:09:24;6.30;99.90
68387;DHT22;55338;43.062;25.624;2022-10-28T03:11:50;6.30;99.90
68387;DHT22;55338;43.062;25.624;2022-10-28T03:14:15;6.20;99.90
68387;DHT22;55338;43.062;25.624;2022-10-28T03:16:41;6.20;99.90
68387;DHT22;55338;43.062;25.624;2022-10-28T03:19:07;6.10;99.90
68387;DHT22;55338;43.062;25.624;2022-10-28T03:21:33;6.10;99.90
68387;DHT22;55338;43.062;25.624;2022-10-28T03:23:59;6.10;99.90
68387;DHT22;55338;43.062;25.624;2022-10-28T03:26:24;6.00;99.90
68387;DHT22;55338;43.062;25.624;2022-10-28T03:28:50;6.00;99.90
68387;DHT22;55338;43.062;25.624;2022-10-28T03:31:16;6.00;99.90
68387;DHT22;55338;43.062;25.624;2022-10-28T03:33:42;6.00;99.90
68387;DHT22;55338;43.062;25.624;2022-10-28T03:36:07;6.00;99.90
68387;DHT22;55338;43.062;25.624;2022-10-28T03:38:33;6.00;99.90
68387;DHT22;55338;43.062;25.624;2022-10-28T03:40:59;6.00;99.90
68387;DHT22;55338;43.062;25.624;2022-10-28T03:43:25;5.90;99.90
68387;DHT22;55338;43.062;25.624;2022-10-28T03:45:50;5.90;99.90
68387;DHT22;55338;43.062;25.624;2022-10-28T03:48:16;6.00;99.90
68387;DHT22;55338;43.062;25.624;2022-10-28T03:50:42;5.90;99.90
68387;DHT22;55338;43.062;25.624;2022-10-28T03:53:08;6.00;99.90
68387;DHT22;55338;43.062;25.624;2022-10-28T03:55:33;6.00;99.90
68387;DHT22;55338;43.062;25.624;2022-10-28T03:58:00;6.00;99.90
68387;DHT22;55338;43.062;25.624;2022-10-28T04:00:27;5.90;99.90
68387;DHT22;55338;43.062;25.624;2022-10-28T04:02:52;5.90;99.90
68387;DHT22;55338;43.062;25.624;2022-10-28T04:05:19;5.90;99.90
68387;DHT22;55338;43.062;25.624;2022-10-28T04:07:45;5.80;99.90
68387;DHT22;55338;43.062;25.624;2022-10-28T04:10:11;5.80;99.90
68387;DHT22;55338;43.062;25.624;2022-10-28T04:12:37;5.70;99.90
68387;DHT22;55338;43.062;25.624;2022-10-28T04:15:03;5.80;99.90
68387;DHT22;55338;43.062;25.624;2022-10-28T04:17:29;5.80;99.90
68387;DHT22;55338;43.062;25.624;2022-10-28T04:19:55;5.80;99.90
68387;DHT22;55338;43.062;25.624;2022-10-28T04:22:21;5.80;99.90
68387;DHT22;55338;43.062;25.624;2022-10-28T04:24:47;5.70;99.90
68387;DHT22;55338;43.062;25.624;2022-10-28T04:27:12;5.70;99.90
68387;DHT22;55338;43.062;25.624;2022-10-28T04:29:38;5.70;99.90
68387;DHT22;55338;43.062;25.624;2022-10-28T04:32:04;5.70;99.90
68387;DHT22;55338;43.062;25.624;2022-10-28T04:34:30;5.70;99.90
68387;DHT22;55338;43.062;25.624;2022-10-28T04:36:55;5.80;99.90
68387;DHT22;55338;43.062;25.624;2022-10-28T04:39:21;5.70;99.90
68387;DHT22;55338;43.062;25.624;2022-10-28T04:41:47;5.70;99.90
68387;DHT22;55338;43.062;25.624;2022-10-28T04:44:13;5.70;99.90
68387;DHT22;55338;43.062;25.624;2022-10-28T04:46:39;5.70;99.90
68387;DHT22;55338;43.062;25.624;2022-10-28T04:49:07;5.70;99.90
68387;DHT22;55338;43.062;25.624;2022-10-28T04:51:34;5.70;99.90
68387;DHT22;55338;43.062;25.624;2022-10-28T04:54:00;5.70;99.90
68387;DHT22;55338;43.062;25.624;2022-10-28T04:56:25;5.70;99.90
68387;DHT22;55338;43.062;25.624;2022-10-28T04:58:51;5.80;99.90
68387;DHT22;55338;43.062;25.624;2022-10-28T05:01:17;5.80;99.90
68387;DHT22;55338;43.062;25.624;2022-10-28T05:03:42;6.10;99.90
68387;DHT22;55338;43.062;25.624;2022-10-28T05:06:08;5.80;99.90
68387;DHT22;55338;43.062;25.624;2022-10-28T05:08:34;5.80;99.90
68387;DHT22;55338;43.062;25.624;2022-10-28T05:10:59;5.80;99.90
68387;DHT22;55338;43.062;25.624;2022-10-28T05:13:25;5.90;99.90
68387;DHT22;55338;43.062;25.624;2022-10-28T05:15:51;5.90;99.90
68387;DHT22;55338;43.062;25.624;2022-10-28T05:18:17;5.90;99.90
68387;DHT22;55338;43.062;25.624;2022-10-28T05:20:43;6.00;99.90
68387;DHT22;55338;43.062;25.624;2022-10-28T05:23:09;6.00;99.90
68387;DHT22;55338;43.062;25.624;2022-10-28T05:25:35;6.10;99.90
68387;DHT22;55338;43.062;25.624;2022-10-28T05:28:00;6.20;99.90
68387;DHT22;55338;43.062;25.624;2022-10-28T05:30:26;6.30;99.90
68387;DHT22;55338;43.062;25.624;2022-10-28T05:33:02;6.40;99.90
68387;DHT22;55338;43.062;25.624;2022-10-28T05:35:29;6.50;99.90
68387;DHT22;55338;43.062;25.624;2022-10-28T05:37:55;6.70;99.90
68387;DHT22;55338;43.062;25.624;2022-10-28T05:40:21;6.90;99.90
68387;DHT22;55338;43.062;25.624;2022-10-28T05:42:47;7.00;99.90
68387;DHT22;55338;43.062;25.624;2022-10-28T05:45:12;7.10;99.60
68387;DHT22;55338;43.062;25.624;2022-10-28T05:47:46;7.30;99.00
68387;DHT22;55338;43.062;25.624;2022-10-28T05:50:13;7.60;98.70
68387;DHT22;55338;43.062;25.624;2022-10-28T05:52:39;7.60;97.80
68387;DHT22;55338;43.062;25.624;2022-10-28T05:55:05;7.70;97.50
68387;DHT22;55338;43.062;25.624;2022-10-28T05:57:34;7.80;97.40
68387;DHT22;55338;43.062;25.624;2022-10-28T06:00:00;7.70;97.50
68387;DHT22;55338;43.062;25.624;2022-10-28T06:02:26;8.00;96.70
68387;DHT22;55338;43.062;25.624;2022-10-28T06:04:52;8.20;96.20
68387;DHT22;55338;43.062;25.624;2022-10-28T06:07:18;8.50;95.50
68387;DHT22;55338;43.062;25.624;2022-10-28T06:09:44;8.70;94.40
68387;DHT22;55338;43.062;25.624;2022-10-28T06:12:09;8.90;94.00
68387;DHT22;55338;43.062;25.624;2022-10-28T06:14:35;9.20;93.70
68387;DHT22;55338;43.062;25.624;2022-10-28T06:17:01;9.60;92.10
68387;DHT22;55338;43.062;25.624;2022-10-28T06:19:27;9.90;91.00
68387;DHT22;55338;43.062;25.624;2022-10-28T06:21:53;10.30;90.30
68387;DHT22;55338;43.062;25.624;2022-10-28T06:24:19;10.70;88.90
68387;DHT22;55338;43.062;25.624;2022-10-28T06:26:44;11.20;87.40
68387;DHT22;55338;43.062;25.624;2022-10-28T06:29:10;11.60;85.60
68387;DHT22;55338;43.062;25.624;2022-10-28T06:31:40;11.90;84.80
68387;DHT22;55338;43.062;25.624;2022-10-28T06:34:07;12.40;82.90
68387;DHT22;55338;43.062;25.624;2022-10-28T06:36:32;12.70;81.10
68387;DHT22;55338;43.062;25.624;2022-10-28T06:38:58;13.10;79.50
68387;DHT22;55338;43.062;25.624;2022-10-28T06:41:24;13.40;78.30
68387;DHT22;55338;43.062;25.624;2022-10-28T06:43:50;13.70;77.40
68387;DHT22;55338;43.062;25.624;2022-10-28T06:46:15;13.80;76.90
68387;DHT22;55338;43.062;25.624;2022-10-28T06:48:41;14.00;76.40
68387;DHT22;55338;43.062;25.624;2022-10-28T06:51:07;14.20;75.60
68387;DHT22;55338;43.062;25.624;2022-10-28T06:53:33;14.60;74.30
68387;DHT22;55338;43.062;25.624;2022-10-28T06:55:58;14.80;74.00
68387;DHT22;55338;43.062;25.624;2022-10-28T06:58:25;15.10;73.20
68387;DHT22;55338;43.062;25.624;2022-10-28T07:00:51;15.50;72.10
68387;DHT22;55338;43.062;25.624;2022-10-28T07:03:17;15.90;70.30
68387;DHT22;55338;43.062;25.624;2022-10-28T07:05:44;16.30;69.60
68387;DHT22;55338;43.062;25.624;2022-10-28T07:08:10;16.70;68.10
68387;DHT22;55338;43.062;25.624;2022-10-28T07:10:36;17.10;66.80
68387;DHT22;55338;43.062;25.624;2022-10-28T07:13:02;17.40;65.60
68387;DHT22;55338;43.062;25.624;2022-10-28T07:15:27;17.70;64.90
68387;DHT22;55338;43.062;25.624;2022-10-28T07:17:54;18.10;63.10
68387;DHT22;55338;43.062;25.624;2022-10-28T07:20:21;18.30;62.10
68387;DHT22;55338;43.062;25.624;2022-10-28T07:22:47;18.60;61.60
68387;DHT22;55338;43.062;25.624;2022-10-28T07:25:13;18.90;60.30
68387;DHT22;55338;43.062;25.624;2022-10-28T07:27:38;19.10;59.60
68387;DHT22;55338;43.062;25.624;2022-10-28T07:30:05;19.40;58.20
68387;DHT22;55338;43.062;25.624;2022-10-28T07:32:31;19.80;57.60
68387;DHT22;55338;43.062;25.624;2022-10-28T07:34:57;20.10;56.80
68387;DHT22;55338;43.062;25.624;2022-10-28T07:37:23;20.40;56.00
68387;DHT22;55338;43.062;25.624;2022-10-28T07:39:49;20.60;55.50
68387;DHT22;55338;43.062;25.624;2022-10-28T07:42:14;20.90;54.60
68387;DHT22;55338;43.062;25.624;2022-10-28T07:44:40;21.10;53.60
68387;DHT22;55338;43.062;25.624;2022-10-28T07:47:06;21.30;53.70
68387;DHT22;55338;43.062;25.624;2022-10-28T07:49:32;21.70;52.40
68387;DHT22;55338;43.062;25.624;2022-10-28T07:51:58;21.70;51.80
68387;DHT22;55338;43.062;25.624;2022-10-28T07:54:23;22.00;51.00
68387;DHT22;55338;43.062;25.624;2022-10-28T07:56:49;21.90;50.60
68387;DHT22;55338;43.062;25.624;2022-10-28T07:59:15;21.70;51.20
68387;DHT22;55338;43.062;25.624;2022-10-28T08:01:41;21.70;51.80
68387;DHT22;55338;43.062;25.624;2022-10-28T08:04:06;22.30;50.70
68387;DHT22;55338;43.062;25.624;2022-10-28T08:06:33;22.70;49.70
68387;DHT22;55338;43.062;25.624;2022-10-28T08:09:00;23.00;47.40
68387;DHT22;55338;43.062;25.624;2022-10-28T08:11:26;23.00;47.30
68387;DHT22;55338;43.062;25.624;2022-10-28T08:13:52;23.20;46.60
68387;DHT22;55338;43.062;25.624;2022-10-28T08:16:19;23.60;46.50
68387;DHT22;55338;43.062;25.624;2022-10-28T08:18:45;24.30;45.00
68387;DHT22;55338;43.062;25.624;2022-10-28T08:21:13;24.20;44.00
68387;DHT22;55338;43.062;25.624;2022-10-28T08:23:39;24.20;45.00
68387;DHT22;55338;43.062;25.624;2022-10-28T08:26:06;24.20;44.10
68387;DHT22;55338;43.062;25.624;2022-10-28T08:28:32;24.50;43.10
68387;DHT22;55338;43.062;25.624;2022-10-28T08:31:03;24.90;42.20
68387;DHT22;55338;43.062;25.624;2022-10-28T08:33:32;25.00;41.70
68387;DHT22;55338;43.062;25.624;2022-10-28T08:35:58;25.40;40.70
68387;DHT22;55338;43.062;25.624;2022-10-28T08:38:24;25.90;39.40
68387;DHT22;55338;43.062;25.624;2022-10-28T08:46:49;26.70;37.10
68387;DHT22;55338;43.062;25.624;2022-10-28T08:49:19;27.10;36.90
68387;DHT22;55338;43.062;25.624;2022-10-28T08:54:32;27.60;35.70
68387;DHT22;55338;43.062;25.624;2022-10-28T08:57:00;27.50;35.60
68387;DHT22;55338;43.062;25.624;2022-10-28T08:59:31;27.40;35.70
68387;DHT22;55338;43.062;25.624;2022-10-28T09:04:41;27.50;34.20
68387;DHT22;55338;43.062;25.624;2022-10-28T09:07:16;27.90;33.70
68387;DHT22;55338;43.062;25.624;2022-10-28T09:09:44;28.40;33.00
68387;DHT22;55338;43.062;25.624;2022-10-28T09:12:13;28.60;32.40
68387;DHT22;55338;43.062;25.624;2022-10-28T09:22:54;28.80;31.80
68387;DHT22;55338;43.062;25.624;2022-10-28T09:36:57;29.40;30.10
68387;DHT22;55338;43.062;25.624;2022-10-28T09:39:33;29.60;30.10
68387;DHT22;55338;43.062;25.624;2022-10-28T09:42:02;29.70;28.90
68387;DHT22;55338;43.062;25.624;2022-10-28T09:44:56;29.30;28.60
68387;DHT22;55338;43.062;25.624;2022-10-28T09:47:28;29.40;28.10
68387;DHT22;55338;43.062;25.624;2022-10-28T09:49:58;29.60;27.00
68387;DHT22;55338;43.062;25.624;2022-10-28T09:52:32;30.20;28.10
68387;DHT22;55338;43.062;25.624;2022-10-28T09:55:06;30.10;27.60
68387;DHT22;55338;43.062;25.624;2022-10-28T09:57:33;30.30;26.50
68387;DHT22;55338;43.062;25.624;2022-10-28T09:59:59;30.70;25.80
68387;DHT22;55338;43.062;25.624;2022-10-28T10:02:29;30.80;26.40
68387;DHT22;55338;43.062;25.624;2022-10-28T10:04:56;30.80;25.50
68387;DHT22;55338;43.062;25.624;2022-10-28T10:07:35;30.80;25.60
68387;DHT22;55338;43.062;25.624;2022-10-28T10:10:26;30.90;26.40
68387;DHT22;55338;43.062;25.624;2022-10-28T10:12:54;31.00;26.30
68387;DHT22;55338;43.062;25.624;2022-10-28T10:15:29;31.00;25.50
68387;DHT22;55338;43.062;25.624;2022-10-28T10:17:59;31.30;25.00
68387;DHT22;55338;43.062;25.624;2022-10-28T10:20:26;31.50;24.70
68387;DHT22;55338;43.062;25.624;2022-10-28T10:22:52;31.90;23.70
68387;DHT22;55338;43.062;25.624;2022-10-28T10:27:59;31.90;24.20
68387;DHT22;55338;43.062;25.624;2022-10-28T10:33:00;32.30;23.70
68387;DHT22;55338;43.062;25.624;2022-10-28T10:35:35;32.50;23.60
68387;DHT22;55338;43.062;25.624;2022-10-28T10:38:04;32.60;23.20
68387;DHT22;55338;43.062;25.624;2022-10-28T10:40:33;32.60;23.30
68387;DHT22;55338;43.062;25.624;2022-10-28T10:43:31;33.20;22.90
68387;DHT22;55338;43.062;25.624;2022-10-28T10:46:15;32.60;22.80
68387;DHT22;55338;43.062;25.624;2022-10-28T10:48:42;32.80;22.80
68387;DHT22;55338;43.062;25.624;2022-10-28T10:51:21;32.30;23.30
68387;DHT22;55338;43.062;25.624;2022-10-28T10:53:48;31.00;25.20
68387;DHT22;55338;43.062;25.624;2022-10-28T10:56:24;30.10;26.60
68387;DHT22;55338;43.062;25.624;2022-10-28T10:58:52;29.10;28.40
68387;DHT22;55338;43.062;25.624;2022-10-28T11:01:22;28.70;30.50
68387;DHT22;55338;43.062;25.624;2022-10-28T11:04:03;29.30;28.40
68387;DHT22;55338;43.062;25.624;2022-10-28T11:06:33;28.40;29.40
68387;DHT22;55338;43.062;25.624;2022-10-28T11:09:03;28.10;30.30
68387;DHT22;55338;43.062;25.624;2022-10-28T11:11:33;28.60;30.40
68387;DHT22;55338;43.062;25.624;2022-10-28T11:16:50;30.40;26.90
68387;DHT22;55338;43.062;25.624;2022-10-28T11:19:29;31.20;26.00
68387;DHT22;55338;43.062;25.624;2022-10-28T11:29:59;32.00;22.50
68387;DHT22;55338;43.062;25.624;2022-10-28T11:35:17;32.30;22.70
68387;DHT22;55338;43.062;25.624;2022-10-28T11:43:49;33.40;21.20
68387;DHT22;55338;43.062;25.624;2022-10-28T11:46:34;33.60;19.90
68387;DHT22;55338;43.062;25.624;2022-10-28T11:57:02;33.00;21.00
68387;DHT22;55338;43.062;25.624;2022-10-28T11:59:51;32.90;20.30
68387;DHT22;55338;43.062;25.624;2022-10-28T12:08:32;34.00;19.70
68387;DHT22;55338;43.062;25.624;2022-10-28T12:17:23;34.30;17.50
68387;DHT22;55338;43.062;25.624;2022-10-28T12:19:58;34.50;17.90
68387;DHT22;55338;43.062;25.624;2022-10-28T12:22:30;34.50;17.60
68387;DHT22;55338;43.062;25.624;2022-10-28T12:25:00;34.60;17.70
68387;DHT22;55338;43.062;25.624;2022-10-28T12:27:31;34.80;17.40
68387;DHT22;55338;43.062;25.624;2022-10-28T12:32:36;33.90;18.40
68387;DHT22;55338;43.062;25.624;2022-10-28T12:35:20;33.40;19.70
68387;DHT22;55338;43.062;25.624;2022-10-28T12:38:01;33.90;18.70
68387;DHT22;55338;43.062;25.624;2022-10-28T12:40:34;33.90;18.50
68387;DHT22;55338;43.062;25.624;2022-10-28T12:46:36;34.20;18.80
68387;DHT22;55338;43.062;25.624;2022-10-28T12:49:22;34.50;18.00
68387;DHT22;55338;43.062;25.624;2022-10-28T12:51:50;34.50;18.10
68387;DHT22;55338;43.062;25.624;2022-10-28T12:54:29;34.20;18.40
68387;DHT22;55338;43.062;25.624;2022-10-28T12:57:11;33.80;18.50
68387;DHT22;55338;43.062;25.624;2022-10-28T13:05:22;34.20;18.30
68387;DHT22;55338;43.062;25.624;2022-10-28T13:18:59;34.10;18.30
68387;DHT22;55338;43.062;25.624;2022-10-28T13:27:02;34.90;16.70
68387;DHT22;55338;43.062;25.624;2022-10-28T13:29:31;34.90;16.80
68387;DHT22;55338;43.062;25.624;2022-10-28T13:31:57;34.60;17.10
68387;DHT22;55338;43.062;25.624;2022-10-28T13:34:35;34.50;17.20
68387;DHT22;55338;43.062;25.624;2022-10-28T13:37:03;34.60;17.20
68387;DHT22;55338;43.062;25.624;2022-10-28T13:44:57;34.70;17.10
68387;DHT22;55338;43.062;25.624;2022-10-28T13:47:30;34.50;17.00
68387;DHT22;55338;43.062;25.624;2022-10-28T13:52:32;33.90;17.80
68387;DHT22;55338;43.062;25.624;2022-10-28T13:57:47;34.10;18.20
68387;DHT22;55338;43.062;25.624;2022-10-28T14:05:15;31.60;21.50
68387;DHT22;55338;43.062;25.624;2022-10-28T14:08:00;30.30;24.50
68387;DHT22;55338;43.062;25.624;2022-10-28T14:15:32;27.10;30.40
68387;DHT22;55338;43.062;25.624;2022-10-28T14:20:54;25.50;32.90
68387;DHT22;55338;43.062;25.624;2022-10-28T14:37:02;23.00;40.90
68387;DHT22;55338;43.062;25.624;2022-10-28T14:39:35;22.60;42.70
68387;DHT22;55338;43.062;25.624;2022-10-28T14:50:39;20.90;48.10
68387;DHT22;55338;43.062;25.624;2022-10-28T14:53:24;20.50;49.00
68387;DHT22;55338;43.062;25.624;2022-10-28T14:56:05;20.20;49.60
68387;DHT22;55338;43.062;25.624;2022-10-28T14:58:40;20.00;50.20
68387;DHT22;55338;43.062;25.624;2022-10-28T15:01:17;19.80;52.30
68387;DHT22;55338;43.062;25.624;2022-10-28T15:03:57;19.60;52.60
68387;DHT22;55338;43.062;25.624;2022-10-28T15:06:41;19.30;53.50
68387;DHT22;55338;43.062;25.624;2022-10-28T15:11:42;18.90;54.90
68387;DHT22;55338;43.062;25.624;2022-10-28T15:14:23;18.70;55.90
68387;DHT22;55338;43.062;25.624;2022-10-28T15:16:49;18.50;56.70
68387;DHT22;55338;43.062;25.624;2022-10-28T15:19:25;18.30;57.10
68387;DHT22;55338;43.062;25.624;2022-10-28T15:24:52;18.00;58.40
68387;DHT22;55338;43.062;25.624;2022-10-28T15:27:18;17.80;59.60
68387;DHT22;55338;43.062;25.624;2022-10-28T15:29:44;17.60;60.20
68387;DHT22;55338;43.062;25.624;2022-10-28T15:34:41;17.30;62.50
68387;DHT22;55338;43.062;25.624;2022-10-28T15:37:07;17.10;63.40
68387;DHT22;55338;43.062;25.624;2022-10-28T15:39:33;16.90;64.30
68387;DHT22;55338;43.062;25.624;2022-10-28T15:42:00;16.80;65.20
68387;DHT22;55338;43.062;25.624;2022-10-28T15:44:37;16.70;66.30
68387;DHT22;55338;43.062;25.624;2022-10-28T15:47:21;16.50;66.40
68387;DHT22;55338;43.062;25.624;2022-10-28T15:52:42;16.30;66.90
68387;DHT22;55338;43.062;25.624;2022-10-28T15:57:48;16.10;67.50
68387;DHT22;55338;43.062;25.624;2022-10-28T16:10:45;15.50;70.60
68387;DHT22;55338;43.062;25.624;2022-10-28T16:13:24;15.40;71.00
68387;DHT22;55338;43.062;25.624;2022-10-28T16:18:28;15.30;71.70
68387;DHT22;55338;43.062;25.624;2022-10-28T16:20:57;15.10;72.40
68387;DHT22;55338;43.062;25.624;2022-10-28T16:23:29;15.00;72.80
68387;DHT22;55338;43.062;25.624;2022-10-28T16:25:57;15.00;72.50
68387;DHT22;55338;43.062;25.624;2022-10-28T16:28:24;15.00;72.50
68387;DHT22;55338;43.062;25.624;2022-10-28T16:30:53;14.90;72.80
68387;DHT22;55338;43.062;25.624;2022-10-28T16:33:31;14.80;73.40
68387;DHT22;55338;43.062;25.624;2022-10-28T16:35:59;14.70;73.90
68387;DHT22;55338;43.062;25.624;2022-10-28T16:38:25;14.50;74.60
68387;DHT22;55338;43.062;25.624;2022-10-28T16:40:52;14.40;75.00
68387;DHT22;55338;43.062;25.624;2022-10-28T16:43:25;14.20;75.70
68387;DHT22;55338;43.062;25.624;2022-10-28T16:45:53;14.10;76.10
68387;DHT22;55338;43.062;25.624;2022-10-28T16:48:25;14.00;76.50
68387;DHT22;55338;43.062;25.624;2022-10-28T16:50:53;13.90;77.70
68387;DHT22;55338;43.062;25.624;2022-10-28T16:53:20;13.80;77.40
68387;DHT22;55338;43.062;25.624;2022-10-28T16:55:46;13.70;77.50
68387;DHT22;55338;43.062;25.624;2022-10-28T16:58:12;13.70;78.10
68387;DHT22;55338;43.062;25.624;2022-10-28T17:00:38;13.60;78.50
68387;DHT22;55338;43.062;25.624;2022-10-28T17:03:05;13.50;78.90
68387;DHT22;55338;43.062;25.624;2022-10-28T17:05:31;13.50;79.20
68387;DHT22;55338;43.062;25.624;2022-10-28T17:07:56;13.30;79.70
68387;DHT22;55338;43.062;25.624;2022-10-28T17:10:25;13.30;80.10
68387;DHT22;55338;43.062;25.624;2022-10-28T17:12:51;13.20;80.70
68387;DHT22;55338;43.062;25.624;2022-10-28T17:15:17;13.20;80.60
68387;DHT22;55338;43.062;25.624;2022-10-28T17:17:43;13.10;80.50
68387;DHT22;55338;43.062;25.624;2022-10-28T17:20:09;13.10;80.90
68387;DHT22;55338;43.062;25.624;2022-10-28T17:22:35;13.00;80.90
68387;DHT22;55338;43.062;25.624;2022-10-28T17:25:03;13.00;81.30
68387;DHT22;55338;43.062;25.624;2022-10-28T17:27:29;12.80;81.60
68387;DHT22;55338;43.062;25.624;2022-10-28T17:29:54;12.80;82.40
68387;DHT22;55338;43.062;25.624;2022-10-28T17:32:20;12.70;82.60
68387;DHT22;55338;43.062;25.624;2022-10-28T17:34:46;12.60;82.80
68387;DHT22;55338;43.062;25.624;2022-10-28T17:37:12;12.60;83.20
68387;DHT22;55338;43.062;25.624;2022-10-28T17:39:37;12.50;83.70
68387;DHT22;55338;43.062;25.624;2022-10-28T17:42:03;12.40;84.10
68387;DHT22;55338;43.062;25.624;2022-10-28T17:44:29;12.30;84.40
68387;DHT22;55338;43.062;25.624;2022-10-28T17:46:55;12.30;84.70
68387;DHT22;55338;43.062;25.624;2022-10-28T17:49:20;12.30;84.70
68387;DHT22;55338;43.062;25.624;2022-10-28T17:51:46;12.30;84.80
68387;DHT22;55338;43.062;25.624;2022-10-28T17:54:12;12.20;84.90
68387;DHT22;55338;43.062;25.624;2022-10-28T17:56:38;12.10;85.40
68387;DHT22;55338;43.062;25.624;2022-10-28T17:59:06;12.10;85.80
68387;DHT22;55338;43.062;25.624;2022-10-28T18:01:33;12.00;85.70
68387;DHT22;55338;43.062;25.624;2022-10-28T18:03:59;11.90;86.00
68387;DHT22;55338;43.062;25.624;2022-10-28T18:06:24;11.90;86.30
68387;DHT22;55338;43.062;25.624;2022-10-28T18:08:50;11.80;86.70
68387;DHT22;55338;43.062;25.624;2022-10-28T18:11:17;11.70;87.10
68387;DHT22;55338;43.062;25.624;2022-10-28T18:13:45;11.70;87.50
68387;DHT22;55338;43.062;25.624;2022-10-28T18:16:21;11.70;87.30
68387;DHT22;55338;43.062;25.624;2022-10-28T18:18:49;11.70;87.00
68387;DHT22;55338;43.062;25.624;2022-10-28T18:21:19;11.60;87.70
68387;DHT22;55338;43.062;25.624;2022-10-28T18:23:52;11.50;88.10
68387;DHT22;55338;43.062;25.624;2022-10-28T18:26:19;11.50;88.30
68387;DHT22;55338;43.062;25.624;2022-10-28T18:28:45;11.40;88.50
68387;DHT22;55338;43.062;25.624;2022-10-28T18:33:37;11.20;88.90
68387;DHT22;55338;43.062;25.624;2022-10-28T18:36:06;11.20;89.20
68387;DHT22;55338;43.062;25.624;2022-10-28T18:38:32;11.10;89.40
68387;DHT22;55338;43.062;25.624;2022-10-28T18:40:58;11.10;89.70
68387;DHT22;55338;43.062;25.624;2022-10-28T18:43:24;11.00;89.90
68387;DHT22;55338;43.062;25.624;2022-10-28T18:45:50;11.00;90.30
68387;DHT22;55338;43.062;25.624;2022-10-28T18:48:16;11.00;90.10
68387;DHT22;55338;43.062;25.624;2022-10-28T18:50:43;10.90;90.40
68387;DHT22;55338;43.062;25.624;2022-10-28T18:53:09;10.90;90.60
68387;DHT22;55338;43.062;25.624;2022-10-28T18:55:35;10.90;90.50
68387;DHT22;55338;43.062;25.624;2022-10-28T18:58:00;10.90;90.40
68387;DHT22;55338;43.062;25.624;2022-10-28T19:00:26;10.90;90.90
68387;DHT22;55338;43.062;25.624;2022-10-28T19:02:52;10.80;91.10
68387;DHT22;55338;43.062;25.624;2022-10-28T19:05:18;10.80;91.20
68387;DHT22;55338;43.062;25.624;2022-10-28T19:07:44;10.70;91.40
68387;DHT22;55338;43.062;25.624;2022-10-28T19:10:10;10.70;91.70
68387;DHT22;55338;43.062;25.624;2022-10-28T19:12:36;10.60;91.90
68387;DHT22;55338;43.062;25.624;2022-10-28T19:15:02;10.60;91.90
68387;DHT22;55338;43.062;25.624;2022-10-28T19:17:28;10.50;92.10
68387;DHT22;55338;43.062;25.624;2022-10-28T19:19:54;10.50;91.80